Time;durP1;ratioP1;P1;durP2;ratioP2;P2;SDS_P1;SDS_P2;PMS_P1;PMS_P2;Temp;Humidity;BMP_temperature;BMP_pressure;BME280_temperature;BME280_humidity;BME280_pressure;Samples;Min_cycle;Max_cycle;Signal;HPM_P1;HPM_P2
2022/03/19 00:01:32;;;;;;;13.80;7.10;;;;;-1.72;99721.20;;;;110813;1250;42124;-66
2022/03/19 00:04:03;;;;;;;13.10;6.10;;;;;-1.70;99713.60;;;;111118;1247;41165;-67
2022/03/19 00:06:38;;;;;;;15.50;6.30;;;;;-1.70;99718.80;;;;111034;1248;41269;-66
2022/03/19 00:09:09;;;;;;;15.00;6.50;;;;;-1.80;99719.60;;;;111093;1247;41609;-67
2022/03/19 00:11:39;;;;;;;14.20;6.30;;;;;-1.84;99717.80;;;;111084;1247;41144;-67
2022/03/19 00:14:14;;;;;;;17.40;6.80;;;;;-1.90;99710.40;;;;111087;1247;41255;-69
2022/03/19 00:16:43;;;;;;;12.80;6.10;;;;;-2.00;99714.40;;;;110914;1249;41617;-68
2022/03/19 00:19:13;;;;;;;14.50;6.30;;;;;-2.10;99719.20;;;;111040;1247;42509;-64
2022/03/19 00:21:43;;;;;;;13.20;5.90;;;;;-2.12;99714.80;;;;110981;1249;41142;-66
2022/03/19 00:24:12;;;;;;;12.00;5.30;;;;;-2.20;99710.80;;;;110811;1250;41271;-66
2022/03/19 00:26:42;;;;;;;14.70;5.70;;;;;-2.30;99709.40;;;;110959;1249;41151;-66
2022/03/19 00:29:12;;;;;;;12.10;5.50;;;;;-2.30;99712.00;;;;111064;1247;41161;-65
2022/03/19 00:31:42;;;;;;;13.50;5.70;;;;;-2.40;99715.00;;;;111036;1248;41136;-66
2022/03/19 00:34:12;;;;;;;15.20;6.00;;;;;-2.44;99711.00;;;;110890;1249;41156;-66
2022/03/19 00:36:42;;;;;;;12.50;5.80;;;;;-2.50;99713.60;;;;110740;1248;41261;-65
2022/03/19 00:39:12;;;;;;;14.80;5.90;;;;;-2.50;99714.60;;;;110929;1249;42404;-65
2022/03/19 00:41:42;;;;;;;13.40;5.90;;;;;-2.50;99720.60;;;;111112;1248;41805;-66
2022/03/19 00:44:13;;;;;;;12.30;5.40;;;;;-2.50;99715.20;;;;111096;1247;41143;-67
2022/03/19 00:46:43;;;;;;;13.20;5.00;;;;;-2.50;99716.60;;;;111080;1246;41149;-68
2022/03/19 00:49:13;;;;;;;12.70;4.90;;;;;-2.54;99713.20;;;;110840;1249;41253;-68
2022/03/19 00:51:43;;;;;;;17.10;5.70;;;;;-2.60;99710.20;;;;111108;1247;42231;-65
2022/03/19 00:54:15;;;;;;;10.30;4.50;;;;;-2.60;99715.40;;;;111408;1246;41251;-66
2022/03/19 00:56:47;;;;;;;11.30;5.00;;;;;-2.60;99713.20;;;;111103;1249;41143;-66
2022/03/19 00:59:16;;;;;;;12.20;5.10;;;;;-2.60;99716.80;;;;111206;1247;41250;-66
2022/03/19 01:01:48;;;;;;;14.90;5.60;;;;;-2.66;99712.20;;;;111063;1247;41270;-66
2022/03/19 01:04:17;;;;;;;12.70;5.20;;;;;-2.70;99714.00;;;;111109;1247;41370;-66
2022/03/19 01:06:48;;;;;;;15.00;5.90;;;;;-2.72;99713.20;;;;111089;1247;41260;-67
2022/03/19 01:09:18;;;;;;;14.10;5.90;;;;;-2.80;99716.60;;;;111063;1249;41150;-67
2022/03/19 01:11:48;;;;;;;13.40;5.90;;;;;-2.80;99721.20;;;;111073;1247;41251;-67
2022/03/19 01:14:18;;;;;;;12.20;5.50;;;;;-2.80;99721.00;;;;111117;1247;41569;-69
2022/03/19 01:16:48;;;;;;;15.50;6.00;;;;;-2.88;99724.20;;;;111119;1247;42398;-67
2022/03/19 01:19:52;;;;;;;14.10;5.60;;;;;-2.90;99719.00;;;;110843;1250;41239;-66
2022/03/19 01:22:08;;;;;;;11.70;5.10;;;;;-2.90;99717.20;;;;111059;1247;41143;-66
2022/03/19 01:24:37;;;;;;;11.90;4.70;;;;;-2.98;99720.20;;;;111047;1247;41535;-66
2022/03/19 01:27:08;;;;;;;11.80;4.80;;;;;-3.00;99723.60;;;;111081;1247;42040;-66
2022/03/19 01:29:39;;;;;;;11.60;4.70;;;;;-3.00;99724.60;;;;111088;1249;41255;-64
2022/03/19 01:32:09;;;;;;;14.10;4.80;;;;;-3.00;99730.40;;;;111079;1247;41169;-66
2022/03/19 01:34:39;;;;;;;12.40;5.30;;;;;-3.00;99725.20;;;;110978;1248;41307;-67
2022/03/19 01:37:10;;;;;;;12.70;4.70;;;;;-3.04;99722.80;;;;111100;1247;41152;-67
2022/03/19 01:39:40;;;;;;;11.70;5.30;;;;;-3.08;99726.80;;;;111070;1248;41258;-67
2022/03/19 01:42:10;;;;;;;13.20;6.00;;;;;-3.10;99722.00;;;;110950;1248;41154;-67
2022/03/19 01:44:40;;;;;;;16.20;6.30;;;;;-3.10;99720.40;;;;110988;1248;41256;-66
2022/03/19 01:47:11;;;;;;;14.70;5.50;;;;;-3.04;99722.20;;;;110853;1250;41359;-67
2022/03/19 01:49:42;;;;;;;12.20;4.90;;;;;-3.10;99722.40;;;;110875;1249;41524;-66
2022/03/19 01:52:16;;;;;;;;;;;;;-3.10;99727.40;;;;111038;1247;41165;-66
2022/03/19 01:54:49;;;;;;;12.00;4.40;;;;;-3.16;99728.40;;;;111062;1247;41760;-66
2022/03/19 01:57:27;;;;;;;11.10;4.60;;;;;-3.20;99724.40;;;;111091;1247;41676;-66
2022/03/19 01:59:58;;;;;;;11.10;4.70;;;;;-3.20;99728.00;;;;110974;1248;41143;-67
2022/03/19 02:02:28;;;;;;;10.90;5.40;;;;;-3.22;99730.80;;;;110941;1249;41163;-66
2022/03/19 02:05:03;;;;;;;14.00;5.50;;;;;-3.30;99732.20;;;;111044;1250;42510;-68
2022/03/19 02:07:32;;;;;;;11.20;4.40;;;;;-3.30;99730.00;;;;110913;1250;41487;-66
2022/03/19 02:10:03;;;;;;;12.70;4.80;;;;;-3.38;99733.20;;;;111094;1249;41158;-65
2022/03/19 02:12:33;;;;;;;11.00;4.60;;;;;-3.40;99729.00;;;;111115;1248;42617;-66
2022/03/19 02:15:04;;;;;;;10.90;4.80;;;;;-3.40;99731.00;;;;110959;1249;41172;-66
2022/03/19 02:17:36;;;;;;;11.30;4.60;;;;;-3.50;99733.00;;;;111078;1248;41256;-66
2022/03/19 02:20:07;;;;;;;10.60;5.00;;;;;-3.50;99736.00;;;;110898;1250;41251;-66
2022/03/19 02:22:37;;;;;;;11.50;4.80;;;;;-3.60;99734.20;;;;111095;1247;41142;-66
2022/03/19 02:27:58;;;;;;;11.10;4.50;;;;;-3.60;99736.60;;;;111214;1244;41127;-65
2022/03/19 02:30:29;;;;;;;13.90;5.00;;;;;-3.68;99738.20;;;;110753;1248;41621;-68
2022/03/19 02:33:00;;;;;;;14.10;5.20;;;;;-3.70;99735.80;;;;111393;1247;41924;-67
2022/03/19 02:35:30;;;;;;;;;;;;;-3.70;99739.80;;;;111238;1247;41606;-64
2022/03/19 02:38:00;;;;;;;14.70;4.70;;;;;-3.76;99735.60;;;;111184;1247;41603;-65
2022/03/19 02:40:31;;;;;;;12.30;5.40;;;;;-3.78;99735.20;;;;110983;1248;41663;-65
2022/03/19 02:43:02;;;;;;;11.40;5.20;;;;;-3.80;99740.00;;;;110862;1249;41260;-64
2022/03/19 02:45:33;;;;;;;13.70;6.10;;;;;-3.74;99738.60;;;;111004;1250;41758;-67
2022/03/19 02:48:03;;;;;;;;;;;;;-3.70;99736.00;;;;111117;1246;41159;-67
2022/03/19 02:50:35;;;;;;;17.00;6.30;;;;;-3.74;99736.40;;;;111051;1249;41607;-67
2022/03/19 02:53:07;;;;;;;16.40;6.30;;;;;-3.80;99736.40;;;;111051;1249;41168;-67
2022/03/19 02:55:39;;;;;;;14.80;5.80;;;;;-3.80;99739.80;;;;111067;1248;42069;-66
2022/03/19 02:58:09;;;;;;;13.80;5.40;;;;;-3.80;99740.40;;;;111129;1247;41715;-66
2022/03/19 03:00:39;;;;;;;22.50;6.00;;;;;-3.80;99745.60;;;;111146;1247;41435;-64
2022/03/19 03:03:10;;;;;;;13.60;5.80;;;;;-3.80;99751.20;;;;111021;1249;41156;-65
2022/03/19 03:05:41;;;;;;;16.60;5.80;;;;;-3.82;99750.00;;;;111052;1249;41164;-67
2022/03/19 03:08:12;;;;;;;11.90;5.60;;;;;-3.88;99748.40;;;;110745;1250;41136;-66
2022/03/19 03:10:43;;;;;;;12.80;5.70;;;;;-3.90;99748.60;;;;111105;1247;41186;-67
2022/03/19 03:13:13;;;;;;;13.50;5.70;;;;;-3.90;99749.60;;;;111168;1246;41602;-65
2022/03/19 03:15:45;;;;;;;11.90;5.30;;;;;-3.90;99749.60;;;;111142;1247;41608;-66
2022/03/19 03:18:15;;;;;;;14.00;5.20;;;;;-3.96;99747.40;;;;111098;1247;41151;-66
2022/03/19 03:20:46;;;;;;;10.90;5.00;;;;;-4.00;99748.80;;;;111394;1244;42037;-65
2022/03/19 03:23:16;;;;;;;12.40;5.10;;;;;-4.00;99748.80;;;;111130;1247;41499;-67
2022/03/19 03:25:46;;;;;;;16.20;5.30;;;;;-4.00;99748.80;;;;111078;1248;41146;-67
2022/03/19 03:28:16;;;;;;;11.10;4.30;;;;;-4.08;99742.80;;;;111261;1247;41243;-68
2022/03/19 03:30:46;;;;;;;12.20;4.90;;;;;-4.10;99748.40;;;;111405;1247;41650;-65
2022/03/19 03:33:15;;;;;;;12.70;4.50;;;;;-4.10;99749.80;;;;111163;1244;41135;-65
2022/03/19 03:35:45;;;;;;;14.50;5.90;;;;;-4.20;99745.20;;;;111125;1247;41146;-65
2022/03/19 03:38:15;;;;;;;14.70;5.80;;;;;-4.20;99747.00;;;;111044;1248;41709;-66
2022/03/19 03:40:45;;;;;;;12.50;5.00;;;;;-4.30;99746.00;;;;111148;1247;42179;-66
2022/03/19 03:43:16;;;;;;;13.40;5.90;;;;;-4.30;99747.00;;;;111106;1247;42064;-66
2022/03/19 03:45:46;;;;;;;14.10;5.80;;;;;-4.36;99747.20;;;;110944;1248;41616;-66
2022/03/19 03:48:17;;;;;;;12.60;4.90;;;;;-4.40;99752.20;;;;111321;1247;41645;-67
2022/03/19 03:50:53;;;;;;;13.00;4.80;;;;;-4.40;99760.00;;;;111188;1244;41888;-67
2022/03/19 03:53:24;;;;;;;11.60;4.90;;;;;-4.50;99755.20;;;;111054;1247;41401;-67
2022/03/19 03:55:55;;;;;;;11.80;5.10;;;;;-4.50;99764.40;;;;111087;1247;41960;-67
2022/03/19 03:58:25;;;;;;;13.60;5.10;;;;;-4.58;99760.60;;;;110888;1249;41140;-67
2022/03/19 04:00:56;;;;;;;12.50;5.10;;;;;-4.60;99764.40;;;;111136;1247;41405;-66
2022/03/19 04:03:25;;;;;;;;;;;;;-4.60;99764.00;;;;111198;1247;41175;-66
2022/03/19 04:05:55;;;;;;;12.40;5.30;;;;;-4.70;99767.60;;;;111280;1245;41184;-67
2022/03/19 04:08:25;;;;;;;11.70;5.30;;;;;-4.72;99770.60;;;;111023;1247;41148;-67
2022/03/19 04:10:55;;;;;;;11.40;5.30;;;;;-4.80;99773.60;;;;111118;1248;41621;-66
2022/03/19 04:13:25;;;;;;;12.20;5.40;;;;;-4.80;99771.80;;;;111098;1248;41153;-66
2022/03/19 04:15:55;;;;;;;12.90;5.60;;;;;-4.90;99777.20;;;;111098;1247;41271;-66
2022/03/19 04:18:26;;;;;;;15.70;6.40;;;;;-5.00;99778.20;;;;111058;1249;41276;-67
2022/03/19 04:20:56;;;;;;;15.40;5.80;;;;;-5.02;99780.40;;;;111106;1247;41325;-67
2022/03/19 04:23:25;;;;;;;12.60;5.50;;;;;-5.10;99779.80;;;;110818;1248;41209;-66
2022/03/19 04:25:55;;;;;;;12.80;5.50;;;;;-5.10;99784.80;;;;111045;1247;42155;-66
2022/03/19 04:28:26;;;;;;;11.10;5.10;;;;;-5.10;99785.20;;;;111046;1248;41155;-66
2022/03/19 04:30:55;;;;;;;11.80;4.60;;;;;-5.16;99781.60;;;;110914;1247;42854;-65
2022/03/19 04:33:25;;;;;;;13.90;4.70;;;;;-5.20;99787.60;;;;111101;1247;42501;-66
2022/03/19 04:38:44;;;;;;;11.60;5.20;;;;;-5.20;99787.20;;;;111057;1249;41641;-65
2022/03/19 04:41:14;;;;;;;13.10;5.40;;;;;-5.18;99785.20;;;;111100;1247;41135;-66
2022/03/19 04:43:44;;;;;;;10.50;4.90;;;;;-5.10;99787.00;;;;111090;1247;41136;-65
2022/03/19 04:46:15;;;;;;;13.70;6.40;;;;;-5.04;99785.80;;;;110946;1250;41149;-65
2022/03/19 04:48:45;;;;;;;13.00;5.90;;;;;-4.94;99784.80;;;;111151;1247;41152;-65
2022/03/19 04:51:17;;;;;;;17.90;8.50;;;;;-4.86;99788.00;;;;111206;1246;41908;-66
2022/03/19 04:53:50;;;;;;;24.60;10.90;;;;;-4.80;99784.20;;;;111089;1247;41119;-66
2022/03/19 04:56:24;;;;;;;20.50;8.60;;;;;-4.70;99783.80;;;;111006;1248;41942;-66
2022/03/19 04:58:58;;;;;;;18.00;8.00;;;;;-4.66;99783.00;;;;111158;1247;41142;-66
2022/03/19 05:01:29;;;;;;;16.60;7.10;;;;;-4.60;99790.60;;;;111091;1249;41139;-65
2022/03/19 05:03:59;;;;;;;14.50;6.90;;;;;-4.46;99787.80;;;;111111;1247;41522;-66
2022/03/19 05:06:29;;;;;;;20.30;8.60;;;;;-4.34;99783.60;;;;111042;1248;41146;-67
2022/03/19 05:11:47;;;;;;;16.00;7.20;;;;;-4.04;99775.80;;;;111092;1245;41862;-65
2022/03/19 05:14:16;;;;;;;14.60;7.80;;;;;-3.90;99782.20;;;;111063;1248;41755;-65
2022/03/19 05:16:46;;;;;;;20.70;8.40;;;;;-3.80;99779.80;;;;111080;1247;41148;-65
2022/03/19 05:19:15;;;;;;;19.60;8.30;;;;;-3.64;99782.40;;;;110895;1248;43131;-66
2022/03/19 05:21:45;;;;;;;17.60;7.70;;;;;-3.50;99772.20;;;;111089;1247;41151;-65
2022/03/19 05:24:14;;;;;;;15.10;7.80;;;;;-3.40;99773.40;;;;110979;1249;41858;-66
2022/03/19 05:26:44;;;;;;;15.70;7.20;;;;;-3.20;99778.80;;;;111092;1247;41599;-69
2022/03/19 05:29:13;;;;;;;15.20;7.20;;;;;-3.10;99777.20;;;;111073;1247;41442;-66
2022/03/19 05:31:45;;;;;;;14.30;7.00;;;;;-2.90;99777.40;;;;111134;1247;41141;-65
2022/03/19 05:34:31;;;;;;;16.60;7.10;;;;;-2.80;99777.00;;;;111198;1245;41799;-65
2022/03/19 05:37:01;;;;;;;18.50;6.70;;;;;-2.60;99775.80;;;;110895;1249;41287;-66
2022/03/19 05:39:32;;;;;;;21.60;8.80;;;;;-2.42;99777.80;;;;111029;1249;41528;-66
2022/03/19 05:42:02;;;;;;;;;;;;;-2.24;99785.20;;;;111130;1247;42388;-66
2022/03/19 05:44:32;;;;;;;21.80;9.40;;;;;-2.10;99782.60;;;;111108;1247;41123;-66
2022/03/19 05:47:02;;;;;;;28.20;11.50;;;;;-1.94;99780.20;;;;110838;1249;41141;-66
2022/03/19 05:49:32;;;;;;;35.40;14.40;;;;;-1.80;99786.80;;;;111068;1247;41937;-65
2022/03/19 05:52:02;;;;;;;35.40;15.90;;;;;-1.60;99787.20;;;;110981;1248;42436;-65
2022/03/19 05:54:31;;;;;;;29.30;13.90;;;;;-1.50;99792.00;;;;110823;1248;41128;-65
2022/03/19 05:57:01;;;;;;;30.30;13.40;;;;;-1.30;99787.80;;;;111139;1247;41139;-65
2022/03/19 05:59:31;;;;;;;27.90;12.30;;;;;-1.20;99783.40;;;;111175;1248;41594;-66
2022/03/19 06:02:00;;;;;;;29.80;14.10;;;;;-1.00;99784.80;;;;111137;1247;41153;-66
2022/03/19 06:04:30;;;;;;;31.60;14.50;;;;;-0.90;99784.80;;;;110997;1248;42167;-66
2022/03/19 06:06:59;;;;;;;39.30;15.10;;;;;-0.80;99783.40;;;;111071;1248;41612;-67
2022/03/19 06:09:29;;;;;;;28.90;11.60;;;;;-0.64;99784.40;;;;111020;1249;41663;-68
2022/03/19 06:11:59;;;;;;;28.30;11.40;;;;;-0.44;99783.80;;;;111136;1250;41257;-67
2022/03/19 06:14:28;;;;;;;24.00;10.70;;;;;-0.30;99778.80;;;;110735;1251;41903;-65
2022/03/19 06:16:57;;;;;;;25.50;11.60;;;;;-0.10;99780.00;;;;110914;1250;41328;-65
2022/03/19 06:19:26;;;;;;;24.60;10.70;;;;;0.10;99780.60;;;;110917;1248;41144;-65
2022/03/19 06:21:56;;;;;;;24.40;10.30;;;;;0.30;99779.40;;;;111110;1247;41133;-65
2022/03/19 06:24:25;;;;;;;22.40;9.00;;;;;0.42;99774.80;;;;111121;1248;41128;-66
2022/03/19 06:26:54;;;;;;;18.30;8.30;;;;;0.62;99776.40;;;;111378;1244;42339;-67
2022/03/19 06:29:24;;;;;;;23.90;9.40;;;;;0.80;99773.80;;;;111378;1247;41200;-65
2022/03/19 06:31:53;;;;;;;22.70;8.70;;;;;1.00;99771.40;;;;111063;1248;41592;-66
2022/03/19 06:34:23;;;;;;;20.00;7.70;;;;;1.10;99770.60;;;;111074;1247;41541;-66
2022/03/19 06:39:39;;;;;;;14.60;6.10;;;;;1.60;99766.60;;;;111158;1246;41252;-65
2022/03/19 06:42:09;;;;;;;14.70;6.00;;;;;1.88;99771.80;;;;111042;1247;41869;-66
2022/03/19 06:44:38;;;;;;;15.70;6.10;;;;;2.20;99758.40;;;;111126;1248;40896;-66
2022/03/19 06:47:08;;;;;;;15.10;6.40;;;;;2.48;99757.60;;;;111091;1249;40754;-65
2022/03/19 06:49:38;;;;;;;12.70;5.50;;;;;2.74;99755.40;;;;111004;1250;41264;-66
2022/03/19 06:52:07;;;;;;;14.40;6.40;;;;;3.08;99757.20;;;;110780;1248;42018;-64
2022/03/19 06:54:37;;;;;;;10.50;4.90;;;;;3.40;99758.00;;;;111064;1247;41612;-66
2022/03/19 06:57:06;;;;;;;14.00;5.90;;;;;3.60;99751.80;;;;111014;1248;41916;-67
2022/03/19 06:59:35;;;;;;;12.30;5.50;;;;;3.80;99753.00;;;;111163;1247;41273;-66
2022/03/19 07:02:04;;;;;;;13.60;5.90;;;;;4.00;99754.20;;;;110888;1246;41655;-65
2022/03/19 07:04:34;;;;;;;12.60;5.20;;;;;4.16;99750.80;;;;110990;1248;41266;-64
2022/03/19 07:07:05;;;;;;;12.40;5.40;;;;;4.40;99748.80;;;;111018;1248;41154;-66
2022/03/19 07:09:35;;;;;;;16.20;5.20;;;;;4.60;99746.40;;;;111048;1248;41686;-65
2022/03/19 07:12:06;;;;;;;14.60;5.60;;;;;4.80;99747.60;;;;111188;1247;41152;-66
2022/03/19 07:14:35;;;;;;;14.30;6.10;;;;;4.90;99744.80;;;;111004;1247;41613;-66
2022/03/19 07:17:07;;;;;;;;;;;;;4.90;99744.80;;;;111073;1249;41133;-65
2022/03/19 07:19:36;;;;;;;12.00;4.70;;;;;4.96;99744.60;;;;111041;1248;41133;-66
2022/03/19 07:22:07;;;;;;;12.20;5.20;;;;;5.20;99750.20;;;;111087;1247;42136;-64
2022/03/19 07:24:38;;;;;;;13.70;5.30;;;;;5.38;99740.80;;;;111083;1248;41264;-67
2022/03/19 07:27:07;;;;;;;11.20;4.50;;;;;5.56;99741.40;;;;111096;1248;41143;-66
2022/03/19 07:29:37;;;;;;;12.70;5.50;;;;;5.80;99738.20;;;;111033;1248;40869;-67
2022/03/19 07:32:07;;;;;;;12.70;5.30;;;;;5.90;99739.60;;;;110523;1247;768928;-68
2022/03/19 07:34:39;;;;;;;11.50;5.10;;;;;5.90;99743.40;;;;111091;1247;41147;-66
2022/03/19 07:37:08;;;;;;;12.00;5.00;;;;;6.00;99743.80;;;;111101;1247;41146;-65
2022/03/19 07:39:37;;;;;;;11.50;5.10;;;;;6.10;99742.40;;;;111034;1248;41131;-67
2022/03/19 07:42:07;;;;;;;11.40;4.70;;;;;6.10;99738.20;;;;111054;1248;42443;-66
2022/03/19 07:44:37;;;;;;;11.80;4.50;;;;;6.30;99741.00;;;;111036;1249;41633;-66
2022/03/19 07:47:07;;;;;;;11.80;5.10;;;;;6.60;99743.60;;;;111018;1250;42431;-66
2022/03/19 07:49:36;;;;;;;16.40;5.80;;;;;6.80;99741.00;;;;111084;1248;41838;-67
2022/03/19 07:52:11;;;;;;;13.90;5.50;;;;;6.60;99745.80;;;;110721;1251;41296;-67
2022/03/19 07:54:41;;;;;;;11.00;4.30;;;;;6.44;99736.80;;;;111029;1250;41202;-67
2022/03/19 07:57:11;;;;;;;12.20;5.10;;;;;6.40;99735.80;;;;111130;1249;41638;-66
2022/03/19 07:59:41;;;;;;;10.90;4.10;;;;;6.70;99734.80;;;;111019;1250;41254;-68
2022/03/19 08:02:10;;;;;;;10.80;4.40;;;;;7.00;99729.80;;;;111094;1247;42047;-67
2022/03/19 08:04:39;;;;;;;11.80;5.20;;;;;7.32;99734.60;;;;111122;1248;41157;-66
2022/03/19 08:07:09;;;;;;;8.80;4.20;;;;;7.62;99733.40;;;;111055;1250;41131;-67
2022/03/19 08:09:38;;;;;;;12.90;4.10;;;;;8.00;99725.80;;;;111150;1248;42045;-67
2022/03/19 08:12:08;;;;;;;9.40;4.00;;;;;8.34;99722.40;;;;111054;1250;41143;-67
2022/03/19 08:14:37;;;;;;;10.90;4.20;;;;;8.60;99719.80;;;;110930;1248;42026;-68
2022/03/19 08:17:06;;;;;;;10.90;4.20;;;;;8.72;99719.80;;;;111107;1247;42149;-67
2022/03/19 08:19:36;;;;;;;15.60;4.80;;;;;8.80;99720.40;;;;111114;1248;41254;-66
2022/03/19 08:22:26;;;;;;;11.40;4.60;;;;;8.80;99722.40;;;;111069;1250;41263;-67
2022/03/19 08:24:55;;;;;;;11.60;4.30;;;;;9.00;99719.60;;;;111105;1248;41405;-66
2022/03/19 08:27:25;;;;;;;9.20;3.80;;;;;9.08;99723.40;;;;111056;1248;41257;-67
2022/03/19 08:29:55;;;;;;;9.00;4.20;;;;;9.76;99717.60;;;;111040;1248;41713;-68
2022/03/19 08:32:24;;;;;;;10.20;4.20;;;;;11.08;99695.60;;;;111007;1249;41930;-66
2022/03/19 08:34:53;;;;;;;10.10;4.10;;;;;12.72;99689.60;;;;111120;1248;42936;-66
2022/03/19 08:37:23;;;;;;;16.50;4.50;;;;;14.60;99676.00;;;;111067;1249;41295;-66
2022/03/19 08:42:41;;;;;;;9.90;3.80;;;;;17.64;99665.20;;;;111037;1248;41152;-65
2022/03/19 08:45:10;;;;;;;11.80;4.00;;;;;18.86;99659.20;;;;111115;1246;41177;-67
2022/03/19 08:47:39;;;;;;;12.60;5.20;;;;;19.94;99652.60;;;;110828;1250;41694;-69
2022/03/19 08:50:09;;;;;;;10.10;4.10;;;;;20.70;99652.20;;;;111045;1249;42049;-68
2022/03/19 08:52:38;;;;;;;11.70;4.70;;;;;21.60;99646.00;;;;111071;1248;41277;-68
2022/03/19 08:55:08;;;;;;;9.80;4.20;;;;;22.16;99641.00;;;;111011;1248;41153;-68
2022/03/19 08:57:37;;;;;;;9.80;3.90;;;;;23.00;99638.60;;;;111046;1248;42271;-67
2022/03/19 09:00:08;;;;;;;17.30;7.90;;;;;23.64;99636.40;;;;110734;1250;41188;-68
2022/03/19 09:02:57;;;;;;;10.00;4.30;;;;;23.50;99629.60;;;;111024;1248;41163;-70
2022/03/19 09:05:28;;;;;;;9.60;3.40;;;;;23.84;99627.20;;;;110987;1250;41152;-66
2022/03/19 09:07:57;;;;;;;8.80;4.00;;;;;24.80;99627.60;;;;111037;1249;41147;-68
2022/03/19 09:10:26;;;;;;;9.60;3.70;;;;;25.38;99620.00;;;;111117;1248;41253;-67
2022/03/19 09:12:56;;;;;;;8.10;3.50;;;;;25.72;99624.60;;;;111041;1247;41405;-68
2022/03/19 09:15:26;;;;;;;7.30;3.30;;;;;26.20;99620.00;;;;111100;1248;41134;-68
2022/03/19 09:17:56;;;;;;;9.40;3.50;;;;;26.82;99621.60;;;;111059;1248;41148;-68
2022/03/19 09:20:25;;;;;;;12.60;4.00;;;;;26.84;99627.20;;;;111103;1247;42546;-69
2022/03/19 09:22:54;;;;;;;9.10;4.10;;;;;25.72;99621.40;;;;111028;1248;41135;-68
2022/03/19 09:25:24;;;;;;;9.50;4.30;;;;;24.80;99620.20;;;;111089;1247;41343;-70
2022/03/19 09:27:54;;;;;;;13.10;4.10;;;;;24.38;99616.80;;;;111106;1247;42468;-68
2022/03/19 09:30:23;;;;;;;7.90;3.40;;;;;24.24;99620.00;;;;111094;1248;41346;-68
2022/03/19 09:32:56;;;;;;;9.60;3.80;;;;;25.12;99618.40;;;;110846;1249;41234;-68
2022/03/19 09:35:48;;;;;;;10.60;3.30;;;;;26.36;99622.00;;;;111063;1248;41156;-68
2022/03/19 09:38:17;;;;;;;9.20;3.40;;;;;27.10;99614.60;;;;111168;1247;41767;-67
2022/03/19 09:40:46;;;;;;;10.70;3.60;;;;;27.30;99606.60;;;;111052;1248;41537;-68
2022/03/19 09:43:15;;;;;;;8.30;3.10;;;;;27.08;99613.60;;;;110926;1248;41253;-67
2022/03/19 09:45:44;;;;;;;8.00;2.90;;;;;27.00;99612.80;;;;110889;1247;41181;-69
2022/03/19 09:48:14;;;;;;;6.80;2.90;;;;;27.22;99614.20;;;;111110;1248;41195;-67
2022/03/19 09:50:44;;;;;;;7.40;2.60;;;;;27.80;99617.20;;;;110837;1250;41150;-67
2022/03/19 09:53:13;;;;;;;7.40;3.20;;;;;28.40;99617.40;;;;110851;1250;41130;-69
2022/03/19 09:55:42;;;;;;;7.50;3.30;;;;;28.32;99615.20;;;;111015;1249;42267;-68
2022/03/19 09:58:13;;;;;;;8.10;3.30;;;;;27.60;99618.20;;;;111257;1247;41215;-70
2022/03/19 10:00:43;;;;;;;8.30;2.70;;;;;27.82;99614.20;;;;111034;1248;41256;-69
2022/03/19 10:03:13;;;;;;;7.70;2.80;;;;;28.46;99619.40;;;;111298;1248;41609;-68
2022/03/19 10:08:36;;;;;;;6.40;2.60;;;;;29.74;99603.60;;;;111184;1247;41640;-68
2022/03/19 10:11:10;;;;;;;6.70;2.50;;;;;29.76;99598.60;;;;111105;1247;41634;-69
2022/03/19 10:13:44;;;;;;;6.70;2.50;;;;;30.74;99594.80;;;;110846;1249;42612;-69
2022/03/19 10:16:28;;;;;;;6.90;2.90;;;;;31.72;99593.80;;;;111065;1247;41255;-69
2022/03/19 10:19:00;;;;;;;8.10;2.80;;;;;32.56;99591.40;;;;111094;1247;41414;-67
2022/03/19 10:21:30;;;;;;;6.10;2.50;;;;;33.14;99587.20;;;;111094;1247;41266;-70
2022/03/19 10:24:01;;;;;;;;;;;;;33.20;99589.60;;;;111157;1247;41852;-70
2022/03/19 10:26:34;;;;;;;5.80;2.30;;;;;33.80;99590.80;;;;111439;1245;41837;-68
2022/03/19 10:29:06;;;;;;;7.00;2.40;;;;;33.80;99590.40;;;;111230;1248;41137;-68
2022/03/19 10:31:46;;;;;;;5.60;2.00;;;;;33.68;99585.00;;;;111076;1251;41264;-69
2022/03/19 10:34:14;;;;;;;;;;;;;33.80;99585.00;;;;111147;1247;41923;-69
2022/03/19 10:36:45;;;;;;;4.20;2.00;;;;;33.86;99583.00;;;;111188;1248;41140;-69
2022/03/19 10:39:21;;;;;;;5.30;2.20;;;;;34.16;99575.60;;;;111217;1248;41613;-69
2022/03/19 10:41:51;;;;;;;5.20;2.20;;;;;34.10;99575.00;;;;110889;1251;41197;-69
2022/03/19 10:44:24;;;;;;;4.80;2.00;;;;;33.92;99574.40;;;;111240;1247;41144;-68
2022/03/19 10:47:00;;;;;;;4.30;1.90;;;;;33.70;99580.20;;;;110829;1248;41938;-68
2022/03/19 10:49:30;;;;;;;6.10;2.00;;;;;33.58;99571.00;;;;111112;1248;41619;-70
2022/03/19 10:52:02;;;;;;;5.20;1.90;;;;;32.36;99564.60;;;;111010;1249;41534;-68
2022/03/19 10:54:31;;;;;;;5.90;1.90;;;;;32.00;99571.40;;;;111082;1250;41280;-68
2022/03/19 10:57:01;;;;;;;7.10;2.60;;;;;32.12;99569.40;;;;110862;1249;41606;-69
2022/03/19 10:59:31;;;;;;;6.10;2.50;;;;;31.92;99553.80;;;;111079;1248;41168;-68
2022/03/19 11:02:00;;;;;;;;;;;;;31.30;99554.60;;;;111178;1248;41607;-69
2022/03/19 11:04:30;;;;;;;6.50;2.50;;;;;31.06;99560.80;;;;111055;1247;41946;-71
2022/03/19 11:07:00;;;;;;;7.90;2.90;;;;;30.38;99584.20;;;;111105;1248;41943;-68
2022/03/19 11:09:29;;;;;;;;;;;;;28.00;99585.00;;;;111075;1247;42463;-67
2022/03/19 11:12:01;;;;;;;8.90;3.10;;;;;26.70;99562.20;;;;111131;1248;41133;-68
2022/03/19 11:14:31;;;;;;;5.30;2.20;;;;;27.40;99560.40;;;;110928;1249;41146;-69
2022/03/19 11:17:27;;;;;;;6.20;2.40;;;;;28.02;99545.00;;;;111224;1247;41132;-70
2022/03/19 11:20:02;;;;;;;6.90;2.50;;;;;29.26;99547.40;;;;111178;1247;42506;-69
2022/03/19 11:22:46;;;;;;;7.00;2.50;;;;;29.60;99540.60;;;;111150;1247;41151;-67
2022/03/19 11:25:27;;;;;;;9.40;4.00;;;;;29.70;99542.00;;;;111085;1248;41246;-69
2022/03/19 11:28:06;;;;;;;8.40;3.20;;;;;30.00;99537.60;;;;111118;1247;41172;-68
2022/03/19 11:30:38;;;;;;;7.20;2.80;;;;;30.00;99533.20;;;;111114;1248;41164;-69
2022/03/19 11:33:17;;;;;;;11.80;2.70;;;;;29.74;99530.40;;;;111030;1247;41145;-69
2022/03/19 11:36:02;;;;;;;6.10;2.40;;;;;28.68;99532.20;;;;111031;1249;41148;-67
2022/03/19 11:38:33;;;;;;;4.60;2.00;;;;;28.00;99551.60;;;;111102;1247;41508;-66
2022/03/19 11:41:16;;;;;;;5.50;2.10;;;;;27.42;99536.40;;;;111133;1248;41912;-67
2022/03/19 11:43:45;;;;;;;5.90;2.30;;;;;26.80;99531.40;;;;111120;1247;41142;-68
2022/03/19 11:46:15;;;;;;;8.20;3.10;;;;;26.24;99530.40;;;;111168;1248;41131;-68
2022/03/19 11:48:54;;;;;;;7.10;2.30;;;;;25.54;99525.20;;;;111089;1248;41365;-70
2022/03/19 11:51:31;;;;;;;8.60;3.40;;;;;26.64;99530.80;;;;111155;1248;41154;-67
2022/03/19 11:54:19;;;;;;;9.90;3.70;;;;;26.94;99521.20;;;;111166;1247;41608;-69
2022/03/19 11:57:05;;;;;;;8.60;3.00;;;;;26.50;99521.00;;;;111073;1247;41195;-68
2022/03/19 11:59:43;;;;;;;6.50;2.80;;;;;26.04;99516.80;;;;111174;1247;41251;-70
2022/03/19 12:02:14;;;;;;;7.20;2.90;;;;;25.22;99538.40;;;;111088;1248;42262;-70
2022/03/19 12:04:47;;;;;;;;;;;;;24.16;99531.80;;;;111118;1248;42257;-70
2022/03/19 12:07:43;;;;;;;9.00;2.90;;;;;23.32;99526.40;;;;111135;1247;41372;-69
2022/03/19 12:10:20;;;;;;;6.30;2.50;;;;;21.62;99522.20;;;;111075;1247;41159;-69
2022/03/19 12:12:49;;;;;;;7.50;2.90;;;;;19.68;99544.40;;;;111162;1247;41149;-69
2022/03/19 12:15:33;;;;;;;6.30;2.50;;;;;19.60;99534.80;;;;111198;1248;41144;-67
2022/03/19 12:18:39;;;;;;;7.00;2.90;;;;;20.72;99519.00;;;;111139;1248;41601;-68
2022/03/19 12:21:11;;;;;;;6.60;2.90;;;;;21.42;99511.00;;;;111098;1248;41259;-68
2022/03/19 12:23:47;;;;;;;6.90;2.60;;;;;21.94;99510.60;;;;111135;1247;41152;-67
2022/03/19 12:26:22;;;;;;;8.10;2.60;;;;;20.46;99508.80;;;;110855;1251;41395;-68
2022/03/19 12:29:00;;;;;;;10.60;2.90;;;;;20.80;99504.00;;;;110826;1248;41232;-69
2022/03/19 12:31:49;;;;;;;12.70;3.10;;;;;21.70;99503.80;;;;111128;1247;41306;-70
2022/03/19 12:34:24;;;;;;;7.90;2.90;;;;;21.88;99503.40;;;;111157;1247;41191;-71
2022/03/19 12:36:59;;;;;;;8.00;2.70;;;;;20.92;99518.00;;;;111098;1247;41604;-69
2022/03/19 12:39:29;;;;;;;6.50;2.50;;;;;20.24;99525.00;;;;110910;1249;42823;-69
2022/03/19 12:41:58;;;;;;;8.50;3.10;;;;;19.64;99505.40;;;;111115;1247;41305;-67
2022/03/19 12:44:36;;;;;;;6.60;2.60;;;;;19.04;99515.20;;;;111048;1248;41395;-69